createdAt,value
2023-02-25T00:01:04.505Z,2.52
2023-02-25T00:02:35.985Z,3.03
2023-02-25T00:04:07.462Z,3.48
2023-02-25T00:05:38.878Z,2.89
2023-02-25T00:07:10.298Z,3.27
2023-02-25T00:08:41.689Z,2.99
2023-02-25T00:10:13.143Z,3.12
2023-02-25T00:11:45.184Z,3.46
2023-02-25T00:13:18.623Z,3.08
2023-02-25T00:14:49.944Z,2.59
2023-02-25T00:16:21.868Z,2.47
2023-02-25T00:17:53.616Z,2.81
2023-02-25T00:19:24.810Z,3.60
2023-02-25T00:20:56.132Z,3.48
2023-02-25T00:22:28.672Z,3.29
2023-02-25T00:24:10.601Z,2.38
2023-02-25T00:25:51.871Z,2.89
2023-02-25T00:27:23.364Z,2.69
2023-02-25T00:28:54.812Z,2.89
2023-02-25T00:30:54.709Z,2.37
2023-02-25T00:32:26.608Z,2.34
2023-02-25T00:33:58.229Z,2.43
2023-02-25T00:35:29.768Z,2.92
2023-02-25T00:37:01.450Z,2.25
2023-02-25T00:38:32.904Z,2.83
2023-02-25T00:40:04.179Z,2.59
2023-02-25T00:41:35.510Z,2.32
2023-02-25T00:43:11.858Z,2.80
2023-02-25T00:44:43.180Z,3.15
2023-02-25T00:46:14.505Z,2.54
2023-02-25T00:47:45.899Z,2.65
2023-02-25T00:49:31.401Z,3.16
2023-02-25T00:51:03.491Z,2.69
2023-02-25T00:52:39.837Z,2.71
2023-02-25T00:54:16.109Z,2.67
2023-02-25T00:55:47.556Z,2.81
2023-02-25T00:57:19.187Z,2.77
2023-02-25T00:58:55.584Z,2.86
2023-02-25T01:00:26.930Z,2.38
2023-02-25T01:01:58.328Z,2.81
2023-02-25T01:03:34.778Z,2.45
2023-02-25T01:05:06.536Z,2.83
2023-02-25T01:06:38.455Z,2.69
2023-02-25T01:08:10.010Z,2.72
2023-02-25T01:09:46.838Z,2.62
2023-02-25T01:11:18.651Z,3.03
2023-02-25T01:12:50.174Z,2.71
2023-02-25T01:14:21.591Z,3.40
2023-02-25T01:15:53.093Z,2.92
2023-02-25T01:17:24.643Z,2.71
2023-02-25T01:18:56.166Z,2.74
2023-02-25T01:20:27.595Z,2.30
2023-02-25T01:21:58.880Z,2.97
2023-02-25T01:23:30.110Z,3.12
2023-02-25T01:25:01.334Z,3.13
2023-02-25T01:26:32.750Z,2.91
2023-02-25T01:28:08.936Z,3.06
2023-02-25T01:29:40.172Z,3.23
2023-02-25T01:31:11.690Z,3.18
2023-02-25T01:32:43.343Z,2.77
2023-02-25T01:34:14.715Z,2.99
2023-02-25T01:35:46.816Z,3.21
2023-02-25T01:37:18.412Z,3.21
2023-02-25T01:38:49.686Z,3.21
2023-02-25T01:40:21.042Z,3.09
2023-02-25T01:41:52.276Z,3.39
2023-02-25T01:43:23.649Z,3.19
2023-02-25T01:44:55.304Z,2.76
2023-02-25T01:46:26.534Z,2.56
2023-02-25T01:47:57.767Z,3.25
2023-02-25T01:49:29.184Z,3.42
2023-02-25T01:51:00.716Z,2.87
2023-02-25T01:52:31.900Z,2.79
2023-02-25T01:54:03.177Z,3.29
2023-02-25T01:55:34.416Z,2.68
2023-02-25T01:57:06.053Z,3.10
2023-02-25T01:58:37.452Z,3.05
2023-02-25T02:00:08.744Z,3.22
2023-02-25T02:01:45.297Z,3.30
2023-02-25T02:03:16.492Z,3.49
2023-02-25T02:04:48.016Z,3.51
2023-02-25T02:06:19.646Z,3.24
2023-02-25T02:07:50.997Z,3.27
2023-02-25T02:09:22.382Z,3.17
2023-02-25T02:10:53.793Z,3.46
2023-02-25T02:12:25.101Z,2.97
2023-02-25T02:13:56.594Z,3.71
2023-02-25T02:15:28.094Z,2.65
2023-02-25T02:16:59.350Z,3.47
2023-02-25T02:18:30.772Z,3.55
2023-02-25T02:20:02.091Z,3.05
2023-02-25T02:21:33.319Z,3.23
2023-02-25T02:23:04.751Z,3.18
2023-02-25T02:24:35.924Z,3.46
2023-02-25T02:26:07.574Z,3.17
2023-02-25T02:27:39.203Z,3.01
2023-02-25T02:29:10.467Z,2.95
2023-02-25T02:30:41.722Z,3.07
2023-02-25T02:32:13.101Z,3.11
2023-02-25T02:33:44.513Z,3.01
2023-02-25T02:35:15.730Z,2.95
2023-02-25T02:36:46.941Z,2.82
2023-02-25T02:38:18.360Z,2.78
2023-02-25T02:39:49.727Z,2.80
2023-02-25T02:41:21.287Z,3.64
2023-02-25T02:42:52.742Z,3.09
2023-02-25T02:44:24.276Z,3.55
2023-02-25T02:45:55.689Z,2.56
2023-02-25T02:47:27.013Z,3.37
2023-02-25T02:48:58.534Z,3.63
2023-02-25T02:50:29.795Z,3.36
2023-02-25T02:52:01.428Z,3.42
2023-02-25T02:53:32.717Z,3.37
2023-02-25T02:55:04.127Z,3.38
2023-02-25T02:56:35.719Z,3.26
2023-02-25T02:58:07.093Z,2.95
2023-02-25T02:59:38.465Z,3.66
2023-02-25T03:01:14.973Z,3.47
2023-02-25T03:02:46.433Z,3.12
2023-02-25T03:04:18.096Z,3.11
2023-02-25T03:05:49.509Z,2.74
2023-02-25T03:07:20.926Z,3.22
2023-02-25T03:08:52.135Z,3.60
2023-02-25T03:10:23.544Z,3.49
2023-02-25T03:11:54.931Z,2.98
2023-02-25T03:13:26.252Z,3.04
2023-02-25T03:14:57.541Z,3.67
2023-02-25T03:16:28.879Z,3.91
2023-02-25T03:18:00.383Z,3.47
2023-02-25T03:19:31.905Z,3.97
2023-02-25T03:21:03.123Z,3.97
2023-02-25T03:22:34.302Z,3.31
2023-02-25T03:24:05.738Z,3.60
2023-02-25T03:25:37.218Z,3.31
2023-02-25T03:27:08.393Z,3.95
2023-02-25T03:28:39.658Z,3.89
2023-02-25T03:30:11.104Z,4.54
2023-02-25T03:31:42.661Z,4.09
2023-02-25T03:33:13.903Z,3.64
2023-02-25T03:34:45.408Z,4.37
2023-02-25T03:36:16.783Z,3.99
2023-02-25T03:37:48.191Z,3.80
2023-02-25T03:39:19.404Z,4.40
2023-02-25T03:40:50.900Z,3.25
2023-02-25T03:42:22.386Z,3.77
2023-02-25T03:43:53.777Z,3.78
2023-02-25T03:45:25.169Z,3.86
2023-02-25T03:46:56.496Z,4.17
2023-02-25T03:48:27.785Z,4.56
2023-02-25T03:49:59.365Z,3.52
2023-02-25T03:51:30.770Z,3.38
2023-02-25T03:53:02.482Z,4.05
2023-02-25T03:54:33.867Z,3.81
2023-02-25T03:56:05.333Z,3.34
2023-02-25T03:57:36.721Z,3.55
2023-02-25T03:59:08.118Z,4.22
2023-02-25T04:00:39.810Z,4.13
2023-02-25T04:02:11.237Z,3.99
2023-02-25T04:03:42.568Z,4.08
2023-02-25T04:05:13.741Z,3.85
2023-02-25T04:06:44.959Z,4.03
2023-02-25T04:08:16.848Z,4.12
2023-02-25T04:09:48.203Z,3.48
2023-02-25T04:11:19.507Z,3.74
2023-02-25T04:12:51.040Z,4.06
2023-02-25T04:14:22.307Z,3.32
2023-02-25T04:15:53.615Z,4.27
2023-02-25T04:17:24.925Z,3.90
2023-02-25T04:18:56.344Z,3.95
2023-02-25T04:20:27.571Z,4.01
2023-02-25T04:21:58.786Z,3.97
2023-02-25T04:23:30.144Z,3.67
2023-02-25T04:25:01.780Z,3.65
2023-02-25T04:26:33.163Z,3.60
2023-02-25T04:28:04.457Z,3.40
2023-02-25T04:29:35.687Z,3.51
2023-02-25T04:31:08.646Z,4.00
2023-02-25T04:32:40.233Z,3.31
2023-02-25T04:34:11.553Z,3.00
2023-02-25T04:35:42.985Z,3.80
2023-02-25T04:37:14.420Z,3.74
2023-02-25T04:38:45.956Z,3.25
2023-02-25T04:40:17.304Z,3.84
2023-02-25T04:41:48.570Z,3.70
2023-02-25T04:43:19.776Z,3.73
2023-02-25T04:44:51.127Z,3.43
2023-02-25T04:46:23.026Z,3.90
2023-02-25T04:47:54.707Z,3.76
2023-02-25T04:49:26.061Z,4.05
2023-02-25T04:51:02.291Z,3.82
2023-02-25T04:52:33.588Z,3.65
2023-02-25T04:54:05.000Z,3.50
2023-02-25T04:55:36.544Z,3.70
2023-02-25T04:57:07.848Z,3.69
2023-02-25T04:58:39.260Z,3.44
2023-02-25T05:00:10.562Z,3.41
2023-02-25T05:01:41.959Z,4.20
2023-02-25T05:03:13.434Z,3.79
2023-02-25T05:04:45.050Z,3.59
2023-02-25T05:06:16.244Z,4.08
2023-02-25T05:07:47.556Z,3.63
2023-02-25T05:09:18.862Z,3.90
2023-02-25T05:10:50.297Z,2.94
2023-02-25T05:12:21.718Z,2.98
2023-02-25T05:13:53.062Z,3.68
2023-02-25T05:15:25.543Z,3.95
2023-02-25T05:16:56.950Z,3.62
2023-02-25T05:18:28.394Z,3.85
2023-02-25T05:19:59.860Z,3.53
2023-02-25T05:21:31.294Z,3.63
2023-02-25T05:23:02.704Z,3.20
2023-02-25T05:24:34.158Z,3.59
2023-02-25T05:26:05.355Z,3.49
2023-02-25T05:27:41.590Z,3.50
2023-02-25T05:29:13.089Z,3.74
2023-02-25T05:30:44.467Z,3.87
2023-02-25T05:32:16.110Z,3.35
2023-02-25T05:33:47.563Z,3.55
2023-02-25T05:35:18.986Z,3.60
2023-02-25T05:36:50.363Z,3.73
2023-02-25T05:38:21.809Z,3.45
2023-02-25T05:39:53.172Z,3.54
2023-02-25T05:41:24.368Z,2.79
2023-02-25T05:42:56.097Z,3.21
2023-02-25T05:44:27.716Z,4.00
2023-02-25T05:45:59.114Z,3.85
2023-02-25T05:47:30.454Z,3.61
2023-02-25T05:49:01.790Z,3.49
2023-02-25T05:50:32.979Z,4.01
2023-02-25T05:52:04.381Z,3.31
2023-02-25T05:53:35.722Z,3.58
2023-02-25T05:55:07.011Z,3.60
2023-02-25T05:56:38.658Z,3.44
2023-02-25T05:58:09.811Z,3.32
2023-02-25T05:59:41.144Z,3.40
2023-02-25T06:01:12.648Z,3.66
2023-02-25T06:02:44.127Z,2.76
2023-02-25T06:04:16.095Z,3.48
2023-02-25T06:05:48.047Z,3.93
2023-02-25T06:07:19.598Z,3.52
2023-02-25T06:08:50.834Z,4.28
2023-02-25T06:10:22.375Z,3.23
2023-02-25T06:11:53.989Z,3.09
2023-02-25T06:13:25.268Z,3.35
2023-02-25T06:14:57.175Z,3.77
2023-02-25T06:16:28.652Z,3.28
2023-02-25T06:18:00.218Z,3.45
2023-02-25T06:19:31.530Z,3.87
2023-02-25T06:21:02.949Z,3.84
2023-02-25T06:22:34.659Z,3.67
2023-02-25T06:24:06.041Z,4.08
2023-02-25T06:25:37.783Z,4.15
2023-02-25T06:27:09.101Z,3.70
2023-02-25T06:28:41.163Z,3.62
2023-02-25T06:30:12.700Z,3.47
2023-02-25T06:31:44.231Z,3.11
2023-02-25T06:33:15.708Z,3.43
2023-02-25T06:34:47.083Z,2.93
2023-02-25T06:36:18.644Z,3.61
2023-02-25T06:37:50.763Z,3.44
2023-02-25T06:39:21.971Z,3.34
2023-02-25T06:40:53.525Z,3.52
2023-02-25T06:42:24.974Z,3.08
2023-02-25T06:43:56.984Z,3.75
2023-02-25T06:45:28.558Z,3.34
2023-02-25T06:47:00.376Z,3.94
2023-02-25T06:48:32.005Z,4.02
2023-02-25T06:50:03.346Z,3.15
2023-02-25T06:51:34.505Z,3.18
2023-02-25T06:53:05.777Z,3.10
2023-02-25T06:54:37.349Z,3.41
2023-02-25T06:56:08.818Z,3.94
2023-02-25T06:57:40.794Z,3.74
2023-02-25T06:59:12.204Z,3.65
2023-02-25T07:00:43.540Z,3.40
2023-02-25T07:02:15.087Z,3.34
2023-02-25T07:03:46.290Z,3.61
2023-02-25T07:05:17.781Z,2.95
2023-02-25T07:06:49.264Z,3.25
2023-02-25T07:08:20.748Z,3.75
2023-02-25T07:09:52.056Z,3.83
2023-02-25T07:11:23.350Z,3.52
2023-02-25T07:12:55.097Z,3.78
2023-02-25T07:14:26.655Z,3.41
2023-02-25T07:15:58.083Z,3.25
2023-02-25T07:17:29.512Z,2.48
2023-02-25T07:19:01.570Z,2.72
2023-02-25T07:20:33.328Z,3.10
2023-02-25T07:22:04.500Z,3.99
2023-02-25T07:23:36.006Z,3.67
2023-02-25T07:25:07.464Z,3.90
2023-02-25T07:26:38.904Z,3.76
2023-02-25T07:28:10.796Z,4.06
2023-02-25T07:29:42.140Z,3.70
2023-02-25T07:31:13.530Z,4.09
2023-02-25T07:32:45.536Z,3.87
2023-02-25T07:34:17.025Z,3.42
2023-02-25T07:35:48.338Z,3.98
2023-02-25T07:37:19.881Z,3.05
2023-02-25T07:38:51.384Z,3.21
2023-02-25T07:40:22.843Z,3.28
2023-02-25T07:41:54.176Z,3.17
2023-02-25T07:43:25.708Z,3.76
2023-02-25T07:44:57.306Z,4.10
2023-02-25T07:46:28.652Z,3.92
2023-02-25T07:47:59.939Z,4.30
2023-02-25T07:49:31.372Z,3.36
2023-02-25T07:51:02.765Z,3.43
2023-02-25T07:52:34.294Z,2.69
2023-02-25T07:54:05.743Z,3.48
2023-02-25T07:55:52.182Z,4.15
2023-02-25T07:57:24.015Z,3.65
2023-02-25T07:58:55.567Z,3.89
2023-02-25T08:00:28.211Z,3.74
2023-02-25T08:02:04.530Z,3.54
2023-02-25T08:03:35.829Z,4.00
2023-02-25T08:05:07.060Z,3.60
2023-02-25T08:06:38.371Z,3.93
2023-02-25T08:08:09.879Z,4.31
2023-02-25T08:09:41.129Z,4.31
2023-02-25T08:11:13.017Z,4.21
2023-02-25T08:12:44.255Z,4.46
2023-02-25T08:14:15.573Z,4.40
2023-02-25T08:15:47.783Z,4.03
2023-02-25T08:17:19.798Z,4.55
2023-02-25T08:18:51.479Z,4.19
2023-02-25T08:20:22.929Z,4.03
2023-02-25T08:21:54.459Z,4.02
2023-02-25T08:23:26.383Z,3.97
2023-02-25T08:24:57.774Z,4.03
2023-02-25T08:26:29.068Z,3.92
2023-02-25T08:28:01.567Z,3.66
2023-02-25T08:29:32.803Z,4.06
2023-02-25T08:31:04.175Z,3.58
2023-02-25T08:32:59.579Z,3.86
2023-02-25T08:34:31.182Z,4.19
2023-02-25T08:36:02.374Z,4.09
2023-02-25T08:37:33.820Z,4.39
2023-02-25T08:39:05.367Z,3.69
2023-02-25T08:40:37.009Z,4.26
2023-02-25T08:42:08.384Z,4.37
2023-02-25T08:43:39.736Z,4.43
2023-02-25T08:45:11.084Z,4.62
2023-02-25T08:46:42.355Z,4.12
2023-02-25T08:48:13.709Z,3.45
2023-02-25T08:49:44.981Z,3.67
2023-02-25T08:51:16.223Z,3.10
2023-02-25T08:53:09.840Z,3.22
2023-02-25T08:54:46.500Z,3.36
2023-02-25T08:56:35.577Z,3.15
2023-02-25T08:58:07.225Z,4.32
2023-02-25T08:59:38.819Z,4.12
2023-02-25T09:01:36.042Z,4.15
2023-02-25T09:03:07.327Z,3.83
2023-02-25T09:04:48.703Z,4.00
2023-02-25T09:06:20.077Z,3.59
2023-02-25T09:07:51.525Z,3.32
2023-02-25T09:09:22.930Z,3.15
2023-02-25T09:10:54.200Z,3.05
2023-02-25T09:12:25.411Z,3.22
2023-02-25T09:13:56.649Z,3.46
2023-02-25T09:15:28.005Z,3.02
2023-02-25T09:16:59.218Z,2.79
2023-02-25T09:18:30.597Z,2.49
2023-02-25T09:20:17.218Z,2.56
2023-02-25T09:22:00.886Z,3.05
2023-02-25T09:23:32.392Z,3.00
2023-02-25T09:25:14.008Z,2.43
2023-02-25T09:29:21.841Z,1.11
2023-02-25T09:30:58.328Z,1.52
2023-02-25T09:32:36.537Z,1.86
2023-02-25T09:34:13.224Z,1.66
2023-02-25T09:36:13.954Z,2.26
2023-02-25T09:37:57.150Z,1.51
2023-02-25T09:40:05.559Z,1.49
2023-02-25T09:41:37.292Z,1.63
2023-02-25T09:43:09.008Z,1.60
2023-02-25T09:44:41.032Z,1.63
2023-02-25T09:46:18.902Z,2.23
2023-02-25T09:47:50.664Z,1.90
2023-02-25T09:49:38.589Z,2.10
2023-02-25T09:51:43.959Z,2.02
2023-02-25T09:53:15.485Z,2.10
2023-02-25T09:54:47.097Z,2.22
2023-02-25T09:56:18.415Z,2.55
2023-02-25T09:57:50.231Z,2.13
2023-02-25T09:59:44.453Z,2.10
2023-02-25T10:01:21.126Z,2.17
2023-02-25T10:02:53.270Z,2.47
2023-02-25T10:04:25.044Z,2.65
2023-02-25T10:05:56.587Z,2.34
2023-02-25T10:07:33.509Z,2.19
2023-02-25T10:09:10.721Z,2.32
2023-02-25T10:10:42.386Z,2.39
2023-02-25T10:12:14.302Z,2.57
2023-02-25T10:13:45.787Z,2.00
2023-02-25T10:15:18.503Z,2.01
2023-02-25T10:16:50.702Z,2.11
2023-02-25T10:18:23.117Z,2.30
2023-02-25T10:19:55.633Z,2.04
2023-02-25T10:21:28.253Z,1.89
2023-02-25T10:23:00.706Z,1.30
2023-02-25T10:24:32.826Z,1.32
2023-02-25T10:26:37.616Z,1.24
2023-02-25T10:28:09.920Z,1.47
2023-02-25T10:29:41.934Z,1.56
2023-02-25T10:31:14.309Z,1.50
2023-02-25T10:32:46.285Z,1.53
2023-02-25T10:34:17.893Z,1.72
2023-02-25T10:35:49.685Z,1.62
2023-02-25T10:37:21.620Z,1.77
2023-02-25T10:38:53.423Z,2.04
2023-02-25T10:40:25.317Z,1.76
2023-02-25T10:41:56.835Z,1.66
2023-02-25T10:43:28.683Z,1.76
2023-02-25T10:45:00.573Z,2.11
2023-02-25T10:46:32.294Z,2.06
2023-02-25T10:48:05.367Z,1.73
2023-02-25T10:52:00.051Z,2.47
2023-02-25T10:53:31.952Z,2.54
2023-02-25T10:55:03.955Z,2.34
2023-02-25T10:56:36.216Z,2.23
2023-02-25T10:58:08.061Z,1.91
2023-02-25T10:59:39.705Z,1.72
2023-02-25T11:01:11.670Z,1.98
2023-02-25T11:02:43.433Z,1.84
2023-02-25T11:04:15.291Z,1.58
2023-02-25T11:05:46.998Z,1.65
2023-02-25T11:07:18.729Z,1.17
2023-02-25T11:09:00.376Z,1.63
2023-02-25T11:10:32.250Z,1.56
2023-02-25T11:12:13.526Z,1.46
2023-02-25T11:13:54.212Z,2.07
2023-02-25T11:15:46.687Z,2.17
2023-02-25T11:17:18.719Z,1.54
2023-02-25T11:18:50.041Z,2.05
2023-02-25T11:20:21.231Z,2.04
2023-02-25T11:22:19.680Z,1.33
2023-02-25T11:23:50.957Z,1.65
2023-02-25T11:25:22.354Z,1.32
2023-02-25T11:26:53.667Z,1.59
2023-02-25T11:28:25.283Z,1.17
2023-02-25T11:29:56.563Z,1.40
2023-02-25T11:31:38.147Z,1.38
2023-02-25T11:33:25.987Z,1.59
2023-02-25T11:34:57.727Z,1.55
2023-02-25T11:36:29.409Z,2.17
2023-02-25T11:38:00.925Z,1.49
2023-02-25T11:39:32.263Z,1.01
2023-02-25T11:41:03.863Z,1.17
2023-02-25T11:42:54.893Z,1.81
2023-02-25T11:44:26.458Z,1.52
2023-02-25T11:45:57.897Z,1.63
2023-02-25T11:47:40.305Z,2.18
2023-02-25T11:49:16.515Z,2.27
2023-02-25T11:50:48.157Z,1.58
2023-02-25T11:52:19.602Z,1.58
2023-02-25T11:53:50.844Z,1.43
2023-02-25T11:55:22.281Z,1.30
2023-02-25T11:56:53.581Z,1.41
2023-02-25T11:58:34.901Z,1.83
2023-02-25T12:00:06.157Z,2.17
2023-02-25T12:01:37.592Z,1.52
2023-02-25T12:03:08.906Z,1.77
2023-02-25T12:04:40.129Z,2.22
2023-02-25T12:06:11.319Z,1.49
2023-02-25T12:07:47.836Z,1.54
2023-02-25T12:09:37.602Z,2.12
2023-02-25T12:11:09.345Z,1.53
2023-02-25T12:12:41.056Z,1.60
2023-02-25T12:14:17.851Z,1.52
2023-02-25T12:16:09.919Z,1.57
2023-02-25T12:18:11.280Z,1.37
2023-02-25T12:19:43.256Z,1.59
2023-02-25T12:21:15.052Z,1.52
2023-02-25T12:23:02.760Z,1.52
2023-02-25T12:24:34.462Z,1.76
2023-02-25T12:26:06.142Z,1.47
2023-02-25T12:27:37.878Z,1.90
2023-02-25T12:29:09.732Z,1.35
2023-02-25T12:30:46.335Z,1.26
2023-02-25T12:32:18.475Z,1.54
2023-02-25T12:33:50.918Z,1.95
2023-02-25T12:35:23.120Z,1.23
2023-02-25T12:36:54.827Z,1.70
2023-02-25T12:38:26.864Z,1.45
2023-02-25T12:39:58.506Z,1.32
2023-02-25T12:41:54.586Z,1.33
2023-02-25T12:44:00.804Z,1.26
2023-02-25T12:45:37.366Z,1.51
2023-02-25T12:47:08.670Z,1.26
2023-02-25T12:48:40.108Z,1.48
2023-02-25T12:50:11.381Z,1.25
2023-02-25T12:51:49.246Z,1.33
2023-02-25T12:53:20.654Z,1.30
2023-02-25T12:54:52.169Z,1.06
2023-02-25T12:56:23.349Z,1.61
2023-02-25T12:58:34.048Z,1.55
2023-02-25T13:00:05.484Z,1.61
2023-02-25T13:01:36.899Z,1.12
2023-02-25T13:03:08.154Z,1.45
2023-02-25T13:04:39.442Z,1.70
2023-02-25T13:06:10.785Z,1.70
2023-02-25T13:07:42.408Z,1.39
2023-02-25T13:09:13.623Z,1.22
2023-02-25T13:10:45.179Z,1.06
2023-02-25T13:12:16.424Z,1.25
2023-02-25T13:13:47.639Z,1.42
2023-02-25T13:15:18.921Z,1.65
2023-02-25T13:16:50.271Z,1.80
2023-02-25T13:18:21.472Z,1.50
2023-02-25T13:19:52.726Z,1.92
2023-02-25T13:21:24.379Z,1.21
2023-02-25T13:22:55.919Z,1.77
2023-02-25T13:24:27.221Z,2.05
2023-02-25T13:25:58.474Z,1.51
2023-02-25T13:27:30.025Z,1.59
2023-02-25T13:29:01.380Z,1.30
2023-02-25T13:30:32.768Z,1.79
2023-02-25T13:32:04.121Z,1.44
2023-02-25T13:33:35.545Z,1.47
2023-02-25T13:35:06.874Z,1.08
2023-02-25T13:36:38.137Z,1.20
2023-02-25T13:38:09.372Z,1.01
2023-02-25T13:39:40.558Z,1.15
2023-02-25T13:41:12.128Z,1.08
2023-02-25T13:42:43.599Z,1.05
2023-02-25T13:44:15.029Z,0.95
2023-02-25T13:45:46.300Z,1.20
2023-02-25T13:47:17.651Z,0.92
2023-02-25T13:48:49.110Z,0.88
2023-02-25T13:50:20.355Z,0.76
2023-02-25T13:51:51.989Z,0.98
2023-02-25T13:53:23.387Z,1.12
2023-02-25T13:54:54.634Z,1.11
2023-02-25T13:56:31.622Z,1.41
2023-02-25T13:58:02.796Z,1.11
2023-02-25T13:59:34.127Z,1.15
2023-02-25T14:01:05.511Z,1.22
2023-02-25T14:02:36.837Z,0.85
2023-02-25T14:04:08.032Z,0.82
2023-02-25T14:05:39.240Z,0.89
2023-02-25T14:07:10.691Z,0.74
2023-02-25T14:08:42.042Z,0.73
2023-02-25T14:10:13.539Z,0.81
2023-02-25T14:11:44.788Z,0.77
2023-02-25T14:13:16.115Z,1.26
2023-02-25T14:14:47.466Z,1.76
2023-02-25T14:16:18.711Z,1.22
2023-02-25T14:17:50.003Z,1.53
2023-02-25T14:19:21.322Z,0.98
2023-02-25T14:20:52.598Z,0.91
2023-02-25T14:22:23.877Z,1.12
2023-02-25T14:23:55.324Z,0.95
2023-02-25T14:25:26.764Z,0.77
2023-02-25T14:26:58.039Z,0.74
2023-02-25T14:28:29.497Z,0.85
2023-02-25T14:30:51.397Z,0.94
2023-02-25T14:32:22.670Z,0.86
2023-02-25T14:34:09.186Z,0.91
2023-02-25T14:35:40.581Z,1.02
2023-02-25T14:37:11.919Z,1.13
2023-02-25T14:38:43.283Z,1.35
2023-02-25T14:40:14.865Z,1.35
2023-02-25T14:41:51.216Z,1.16
2023-02-25T14:43:23.063Z,1.08
2023-02-25T14:44:55.936Z,0.85
2023-02-25T14:46:27.222Z,0.98
2023-02-25T14:48:03.715Z,0.92
2023-02-25T14:49:35.085Z,0.90
2023-02-25T14:51:06.463Z,0.80
2023-02-25T14:52:37.930Z,1.12
2023-02-25T14:54:22.186Z,0.98
2023-02-25T14:55:54.106Z,0.92
2023-02-25T14:57:25.886Z,0.92
2023-02-25T14:58:57.398Z,0.87
2023-02-25T15:00:36.691Z,0.94
2023-02-25T15:02:08.359Z,0.79
2023-02-25T15:03:43.129Z,0.87
2023-02-25T15:05:16.532Z,0.79
2023-02-25T15:06:48.501Z,1.01
2023-02-25T15:08:20.088Z,0.96
2023-02-25T15:09:51.631Z,1.12
2023-02-25T15:11:23.721Z,0.81
2023-02-25T15:13:00.887Z,0.85
2023-02-25T15:14:33.388Z,0.79
2023-02-25T15:16:21.936Z,1.01
2023-02-25T15:17:53.880Z,1.17
2023-02-25T15:19:30.658Z,1.06
2023-02-25T15:21:02.422Z,0.76
2023-02-25T15:22:49.054Z,0.97
2023-02-25T15:24:21.009Z,1.31
2023-02-25T15:25:52.868Z,1.42
2023-02-25T15:27:24.891Z,1.17
2023-02-25T15:28:57.052Z,1.13
2023-02-25T15:30:29.733Z,1.05
2023-02-25T15:32:17.895Z,0.86
2023-02-25T15:33:49.620Z,1.00
2023-02-25T15:35:21.311Z,1.13
2023-02-25T15:36:53.676Z,1.04
2023-02-25T15:38:46.819Z,0.92
2023-02-25T15:42:31.111Z,0.92
2023-02-25T15:44:08.154Z,0.86
2023-02-25T15:45:40.034Z,1.02
2023-02-25T15:47:11.904Z,1.24
2023-02-25T15:48:43.890Z,1.12
2023-02-25T15:50:16.104Z,1.44
2023-02-25T15:51:48.189Z,1.30
2023-02-25T15:53:20.422Z,1.25
2023-02-25T15:54:52.447Z,1.45
2023-02-25T15:56:24.509Z,1.52
2023-02-25T15:57:56.643Z,1.45
2023-02-25T15:59:28.629Z,1.48
2023-02-25T16:01:00.877Z,1.16
2023-02-25T16:02:33.032Z,1.43
2023-02-25T16:04:04.736Z,1.27
2023-02-25T16:06:12.728Z,1.09
2023-02-25T16:07:44.339Z,1.05
2023-02-25T16:09:15.620Z,1.49
2023-02-25T16:10:58.555Z,1.24
2023-02-25T16:12:30.918Z,1.26
2023-02-25T16:14:02.646Z,0.92
2023-02-25T16:15:34.069Z,0.81
2023-02-25T16:17:05.290Z,0.93
2023-02-25T16:19:18.898Z,1.28
2023-02-25T16:20:51.662Z,1.67
2023-02-25T16:22:28.394Z,1.46
2023-02-25T16:24:00.028Z,1.30
2023-02-25T16:25:33.168Z,1.22
2023-02-25T16:27:05.038Z,1.06
2023-02-25T16:28:36.948Z,1.12
2023-02-25T16:30:08.644Z,1.05
2023-02-25T16:32:19.493Z,0.99
2023-02-25T16:33:51.405Z,0.83
2023-02-25T16:35:23.000Z,0.99
2023-02-25T16:36:54.973Z,1.21
2023-02-25T16:38:26.865Z,1.27
2023-02-25T16:39:59.124Z,1.16
2023-02-25T16:41:37.965Z,1.34
2023-02-25T16:43:10.469Z,1.74
2023-02-25T16:44:42.596Z,1.43
2023-02-25T16:46:15.604Z,1.45
2023-02-25T16:47:47.522Z,1.45
2023-02-25T16:49:24.056Z,1.28
2023-02-25T16:51:11.004Z,1.94
2023-02-25T16:52:42.960Z,1.43
2023-02-25T16:54:14.648Z,1.21
2023-02-25T16:55:46.143Z,0.97
2023-02-25T16:57:17.935Z,1.45
2023-02-25T16:58:49.692Z,1.12
2023-02-25T17:00:21.346Z,1.15
2023-02-25T17:01:53.840Z,1.34
2023-02-25T17:03:26.724Z,1.28
2023-02-25T17:04:58.263Z,1.23
2023-02-25T17:06:30.228Z,1.53
2023-02-25T17:08:02.045Z,1.31
2023-02-25T17:09:34.010Z,1.06
2023-02-25T17:11:05.857Z,1.18
2023-02-25T17:13:15.485Z,0.97
2023-02-25T17:14:47.332Z,1.34
2023-02-25T17:16:21.218Z,1.42
2023-02-25T17:17:53.244Z,1.48
2023-02-25T17:19:25.470Z,1.12
2023-02-25T17:20:57.408Z,1.12
2023-02-25T17:22:29.416Z,1.59
2023-02-25T17:24:01.214Z,1.24
2023-02-25T17:25:32.458Z,1.14
2023-02-25T17:27:04.393Z,1.24
2023-02-25T17:28:35.951Z,1.58
2023-02-25T17:30:07.574Z,1.13
2023-02-25T17:31:39.755Z,1.24
2023-02-25T17:33:11.427Z,1.17
2023-02-25T17:34:43.053Z,1.19
2023-02-25T17:36:14.767Z,0.93
2023-02-25T17:37:46.640Z,1.30
2023-02-25T17:39:23.585Z,1.34
2023-02-25T17:40:55.646Z,1.70
2023-02-25T17:42:27.547Z,1.83
2023-02-25T17:43:58.912Z,1.64
2023-02-25T17:46:16.777Z,1.49
2023-02-25T17:47:48.758Z,1.57
2023-02-25T17:49:20.172Z,1.75
2023-02-25T17:51:01.750Z,1.27
2023-02-25T17:52:38.554Z,1.48
2023-02-25T17:54:20.593Z,1.90
2023-02-25T17:55:57.302Z,1.95
2023-02-25T17:57:29.986Z,1.53
2023-02-25T17:59:01.329Z,1.57
2023-02-25T18:00:32.941Z,1.55
2023-02-25T18:02:09.223Z,1.56
2023-02-25T18:03:41.385Z,1.82
2023-02-25T18:05:13.430Z,1.29
2023-02-25T18:06:45.023Z,1.82
2023-02-25T18:08:16.381Z,1.80
2023-02-25T18:09:47.666Z,1.81
2023-02-25T18:11:59.479Z,2.12
2023-02-25T18:13:52.672Z,1.65
2023-02-25T18:15:24.589Z,1.53
2023-02-25T18:16:57.565Z,1.37
2023-02-25T18:18:29.025Z,1.95
2023-02-25T18:20:16.358Z,1.57
2023-02-25T18:22:20.596Z,1.24
2023-02-25T18:23:52.327Z,1.20
2023-02-25T18:25:24.399Z,1.75
2023-02-25T18:26:56.100Z,1.69
2023-02-25T18:28:45.234Z,1.50
2023-02-25T18:30:16.916Z,1.34
2023-02-25T18:31:49.416Z,1.82
2023-02-25T18:33:20.902Z,1.67
2023-02-25T18:34:52.401Z,1.72
2023-02-25T18:36:43.602Z,1.82
2023-02-25T18:38:15.150Z,1.48
2023-02-25T18:39:46.820Z,0.98
2023-02-25T18:41:37.902Z,1.74
2023-02-25T18:43:09.807Z,1.78
2023-02-25T18:44:41.474Z,1.73
2023-02-25T18:46:13.190Z,1.85
2023-02-25T18:47:45.371Z,1.57
2023-02-25T18:49:25.886Z,1.59
2023-02-25T18:50:57.756Z,1.80
2023-02-25T18:52:44.256Z,1.64
2023-02-25T18:54:26.989Z,1.95
2023-02-25T18:55:58.349Z,1.85
2023-02-25T18:57:29.776Z,2.05
2023-02-25T18:59:06.469Z,2.46
2023-02-25T19:01:09.861Z,2.39
2023-02-25T19:02:41.812Z,2.72
2023-02-25T19:04:13.536Z,2.31
2023-02-25T19:05:45.291Z,2.27
2023-02-25T19:07:17.338Z,2.26
2023-02-25T19:09:18.011Z,2.34
2023-02-25T19:10:49.919Z,2.39
2023-02-25T19:12:21.639Z,2.37
2023-02-25T19:13:58.524Z,2.45
2023-02-25T19:15:30.357Z,2.24
2023-02-25T19:17:02.027Z,2.79
2023-02-25T19:18:33.346Z,2.60
2023-02-25T19:20:23.484Z,2.27
2023-02-25T19:22:00.427Z,2.35
2023-02-25T19:23:33.188Z,2.60
2023-02-25T19:25:05.148Z,2.69
2023-02-25T19:26:36.633Z,2.91
2023-02-25T19:28:08.263Z,3.03
2023-02-25T19:29:39.720Z,3.29
2023-02-25T19:31:17.326Z,2.88
2023-02-25T19:33:04.979Z,2.95
2023-02-25T19:34:41.341Z,2.62
2023-02-25T19:36:32.338Z,2.81
2023-02-25T19:38:16.382Z,2.70
2023-02-25T19:39:47.929Z,2.83
2023-02-25T19:41:54.151Z,4.08
2023-02-25T19:43:26.189Z,2.91
2023-02-25T19:44:58.219Z,2.44
2023-02-25T19:46:30.457Z,2.59
2023-02-25T19:48:07.518Z,2.73
2023-02-25T19:49:39.928Z,2.47
2023-02-25T19:53:13.179Z,2.99
2023-02-25T19:54:44.741Z,2.70
2023-02-25T19:56:16.669Z,2.77
2023-02-25T19:57:48.672Z,2.63
2023-02-25T19:59:20.324Z,2.84
2023-02-25T20:00:52.084Z,2.55
2023-02-25T20:02:23.922Z,2.57
2023-02-25T20:03:55.577Z,2.64
2023-02-25T20:05:27.009Z,2.70
2023-02-25T20:07:20.671Z,2.74
2023-02-25T20:08:52.649Z,2.94
2023-02-25T20:10:24.629Z,2.85
2023-02-25T20:11:56.744Z,2.64
2023-02-25T20:13:28.461Z,2.84
2023-02-25T20:15:05.288Z,2.67
2023-02-25T20:16:37.228Z,2.88
2023-02-25T20:18:09.036Z,2.92
2023-02-25T20:19:41.542Z,2.82
2023-02-25T20:21:13.215Z,2.88
2023-02-25T20:22:46.175Z,2.69
2023-02-25T20:24:18.121Z,2.65
2023-02-25T20:25:49.798Z,2.92
2023-02-25T20:27:49.114Z,2.65
2023-02-25T20:29:21.401Z,2.69
2023-02-25T20:30:53.112Z,3.06
2023-02-25T20:32:25.101Z,2.70
2023-02-25T20:34:14.961Z,3.05
2023-02-25T20:35:46.433Z,2.98
2023-02-25T20:37:17.961Z,2.78
2023-02-25T20:38:49.225Z,3.29
2023-02-25T20:40:20.625Z,3.00
2023-02-25T20:41:52.330Z,3.08
2023-02-25T20:43:23.616Z,3.35
2023-02-25T20:44:55.128Z,3.34
2023-02-25T20:46:45.822Z,3.16
2023-02-25T20:48:22.164Z,3.12
2023-02-25T20:49:53.492Z,3.07
2023-02-25T20:51:35.064Z,3.15
2023-02-25T20:53:06.445Z,3.06
2023-02-25T20:54:37.881Z,3.25
2023-02-25T20:56:39.159Z,3.60
2023-02-25T20:58:10.458Z,3.39
2023-02-25T20:59:48.080Z,3.44